Manheim, West Virginia
Current Conditions -  °F | °C
As of 3:51 AM on Saturday 22 Nov 2014 (Local Time) from KEKN Reporting Station
Clear Clear  
Wind Chill: -11°   Ceiling: Unl
Heat Index: -11°   Visibility: 8mi
Dew Point: -12°   Wind: 0mph
Humidity: 88%   Direction: NA
Pressure: 30.41"   Gusts: NA
Location:  39.2234°N, 79.6204°W
Report Text: KEKN 220851Z AUTO 00000KT 8SM CLR M11/M12 A3041 RMK AO2 SLP334 I1000 I3000 T11061122 58005 TSNO
Loading
Personal Weather Stations






























Interactive Weather Map New forecast layout! Learn more

10-Day Weather Forecast

Advertisements
Track Severe Weather on mobile